ENML

Molde Airport

Årø, Norway
METAR ENML 211950Z 03008KT 9999 FEW060 M03/M09 Q1010
Observed Flight Rules
Jan-21 @ 19:50 UTC (26 minutes ago) Visual Flight Rules
Wind Visibility Clouds
30° at 8 knots 10,000+ meters
  • Few at 6,000' AGL
Temperatures Readings
Current -3°C / 27°F
Dewpoint -9°C / 16°F
Humidity 64%
Altimeter 29.82" Hg
Pressure 1010 hPa
Elevation 3
METAR ENML 211950Z 03008KT 9999 FEW060 M03/M09 Q1010
Observed Flight Rules
Jan-21 @ 19:50 UTC
(26 minutes ago)
VFR
Wind Visibility
30° at 8 knots 10,000+ meters
Clouds
  • Few at 6,000' AGL
Temperature Dewpoint
-3°C / 27°F -9°C / 16°F
Humidity Altimeter Pressure
64% 29.82" Hg 1010 hPa